x

Los Angeles Pier F, Ca - 9410670 (pfxc1) Weather Station

7:30 - Sat 23rd Jul 2016 All times are PDT. -7 hours from GMT.

  • Wind
    2mph, 3mph gusts
  • Luft Temp 68°f
  • Sea Pressure 1008.8mb
  • Los Angeles Pier F, Ca - 9410670
  • Los Angeles Pier F, Ca - 9410670

More Historic Weather Station data

Upgrade to MSW Pro to gain access to the past 30 days of data for over 8000 Wavebouys and Weather Stations around the globe.

Join Pro

Comparision Forecast

View Surf forecast
   
Sa 07/23 7:30 2 3 mph 1008.8mb 68f
7:24 2
mph
1008.8mb 68f
7:18 2
mph
1008.8mb 68f
7:12 2 3 mph 1008.8mb 68f
7:06 2 3 mph 1008.8mb 68f
7:00  -  1 mph 1008.8mb 68f
6:54  -  1 mph 1008.8mb 69f
6:48  -  1 mph 1008.8mb 69f
6:42 3 5 mph 1008.8mb 69f
6:36 3 5 mph 1008.8mb 69f
6:30 5 6 mph 1008.8mb 69f
6:24 3 5 mph 1008.8mb 69f
6:18 3 6 mph 1008.8mb 69f
6:12 3 6 mph 1008.7mb 69f
6:06 3 6 mph 1008.8mb 68f
6:00 3 5 mph 1008.8mb 68f
5:54 3 5 mph 1008.8mb 68f
5:48 3 5 mph 1008.8mb 69f
5:42 5 6 mph 1008.8mb 69f
5:36 5 6 mph 1008.7mb 69f
5:30 3 5 mph 1008.5mb 69f
5:24 3 5 mph 1008.5mb 69f
5:18 3 5 mph 1008.4mb 70f
5:12 3 5 mph 1008.4mb 70f
5:06 3 5 mph 1008.3mb 70f
5:00 2 5 mph 1008.3mb 70f
4:54 3 6 mph 1008.3mb 70f
4:48 5 6 mph 1008.3mb 70f
4:42 6 7 mph 1008.3mb 70f
4:36 6 7 mph 1008.3mb 70f
4:30 5 6 mph 1008.2mb 70f
4:24 5 6 mph 1008.2mb 70f
4:18 6 7 mph 1008.3mb 70f
4:12 6 7 mph 1008.4mb 70f
4:06 6 7 mph 1008.5mb 70f
4:00 6 7 mph 1008.4mb 70f
3:54 6 7 mph 1008.3mb 70f
3:48 6 7 mph 1008.3mb 70f
3:42 6 7 mph 1008.4mb 70f
3:36 6
mph
1008.4mb 69f
3:30 6 7 mph 1008.4mb 69f
3:24 6 7 mph 1008.4mb 69f
3:18 6
mph
1008.4mb 68f
3:12 6 7 mph 1008.4mb 68f
3:06 6 7 mph 1008.5mb 68f
3:00 7 8 mph 1008.6mb 69f
2:54 8 9 mph 1008.6mb 69f
2:48 8 9 mph 1008.7mb 69f
2:42 8 10 mph 1008.7mb 69f
2:36 9 11 mph 1008.8mb 69f
2:30 10 11 mph 1008.7mb 68f
2:24 10 13 mph 1008.6mb 68f
2:18 10 13 mph 1008.5mb 68f
2:06 10 11 mph 1008.5mb 68f
2:00 9 10 mph 1008.5mb 68f
1:54 9 10 mph 1008.5mb 68f
1:48 9 10 mph 1008.5mb 68f
1:42 8 9 mph 1008.5mb 68f
1:36 7 8 mph 1008.6mb 67f
1:30 7
mph
1008.7mb 68f
1:24 7 8 mph 1008.8mb 68f
1:18 6 8 mph 1008.8mb 69f
1:12 6 7 mph 1008.8mb 69f
1:06 3 5 mph 1008.8mb 70f
1:00 5 6 mph 1008.8mb 70f
12:54 6 7 mph 1008.9mb 71f
12:48 7 8 mph 1009mb 71f
12:42 8 9 mph 1008.9mb 71f
12:36 7 9 mph 1008.9mb 71f
12:30 6 7 mph 1009mb 72f
12:24 6 7 mph 1009.1mb 73f
12:18 5 6 mph 1009.1mb 74f
12:12 5
mph
1009.1mb 75f
12:06 3 5 mph 1009.1mb 75f
12:00 5 6 mph 1009.1mb 74f
Fr 07/22 11:54 5 6 mph 1009.2mb 74f
11:48 5 6 mph 1009.3mb 74f
11:42 1 2 mph 1009.2mb 73f
11:36 1 2 mph 1009.1mb 74f
11:30  -  2 mph 1009.1mb 74f
11:24 2 3 mph 1009.1mb 74f
11:18 2 3 mph 1009.2mb 73f
11:12 1 2 mph 1009.1mb 73f
11:06 1 2 mph 1009.1mb 73f
11:00  -  mph 1009.1mb 72f
10:54 1 2 mph 1009.1mb 72f
10:48 2 3 mph 1009.1mb 73f
10:42 1 2 mph 1009.1mb 73f
10:36  -  1 mph 1009.1mb 73f
10:30  -  1 mph 1009.2mb 72f
10:24  -  1 mph 1009.2mb 72f
10:18  -  1 mph 1009.2mb 72f
10:12 1 3 mph 1009.2mb 72f
10:06 2 3 mph 1009.3mb 72f
10:00 5
mph
1009.2mb 71f
9:54 5
mph
1009.2mb 71f
9:48 5 6 mph 1009.1mb 71f
9:42 5 6 mph 1009.1mb 71f
9:36 7
mph
1009mb 71f
9:30 5 7 mph 1008.9mb 71f
9:24 3 5 mph 1008.8mb 74f
9:18 3 5 mph 1008.8mb 73f
9:12 3
mph
1008.8mb 72f
9:06 3 5 mph 1008.8mb 72f
9:00 3 5 mph - 71f
8:54 5 6 mph - 70f
8:48 6 8 mph 1008.7mb 70f
8:42 7 9 mph 1008.7mb 70f
8:36 6 8 mph 1008.7mb 72f
8:30 7 9 mph 1008.7mb 72f
8:24 9 10 mph 1008.7mb 72f
8:18 8 9 mph 1008.8mb 72f
8:12 8 10 mph 1008.8mb 72f
8:06 8 9 mph 1008.7mb 72f
8:00  -  mph - 73f
7:54  -  mph - 74f
7:48 7 9 mph - -
7:42 7 9 mph - -
7:36 9 11 mph - -
7:30 10 13 mph - -
7:24 10 13 mph - -
7:18 9 11 mph - 75f
7:12 11 13 mph - 74f
7:06 9 13 mph - 75f
7:00 9 10 mph - 75f
6:54 7 9 mph - 75f
6:48 9 11 mph - -
6:42 11 14 mph - -
6:36 14 15 mph - -
6:30 14 16 mph - -
6:24 15 16 mph - -
6:18 16 17 mph 1008.6mb -
6:12 15 16 mph 1008.8mb -
6:06 15
mph
1008.8mb -
6:00  -  mph - 76f
5:54  -  mph - 77f
5:48 11 15 mph - -
5:42 8 11 mph - -
5:36 6 7 mph - -
5:30 6 8 mph - 77f
5:24 5 6 mph - 76f
5:18 6 8 mph - 77f
5:12 8 10 mph - 78f
5:06 11 13 mph - 77f
5:00  -  mph - 78f
4:54  -  mph - 79f
4:48 6 9 mph - -
4:42 5 6 mph - -
4:36 5 6 mph - -
4:30 3 7 mph - -
4:24 6 8 mph - -
4:18 7 9 mph - -
4:12 10 13 mph - -
4:06 11 13 mph - -
4:00 11 13 mph - -
3:54 10 11 mph - -
3:48 10 11 mph - -
3:42 9 11 mph - -
3:36 6 10 mph - -
3:30 2 6 mph - 85f
3:24 2 3 mph - 82f
3:18  -  mph - 80f
3:12  -  mph - 81f
3:06  -  mph - 83f
3:00  -  mph - 85f
2:54  -  mph - 85f
2:48 9 10 mph - 81f
2:42 11 13 mph - 78f
2:36 13 14 mph - 79f
2:30 14 15 mph 1010.5mb 79f
2:24 15
mph
1010.7mb 79f
2:18 15 16 mph 1010.7mb 78f
2:12 15 16 mph 1010.8mb 78f
2:06 16 17 mph 1010.9mb 78f
2:00 17
mph
1011mb 79f
1:54 15 17 mph 1011.1mb 79f
1:48 13 15 mph 1011.1mb 78f
1:42 9 14 mph 1011mb 77f
1:36 6 8 mph 1011.2mb 81f
1:30 8 9 mph 1011.5mb 84f
1:24 9 10 mph 1011.7mb 82f
1:18 10 13 mph 1011.7mb 79f
1:12 14 15 mph 1011.9mb 78f
1:06 14 15 mph 1012mb 78f
1:00 13 14 mph 1012.1mb 79f
12:54 13 14 mph 1012.1mb 78f
12:48 13 14 mph 1012.2mb 78f
12:42 11 14 mph 1012.3mb 78f
12:36 11 13 mph 1012.4mb 77f
12:30 13
mph
1012.4mb 77f
12:24 13
mph
1012.6mb 77f
12:18 11 13 mph 1012.6mb 77f
12:12 11
mph
1012.7mb 76f
12:06 13
mph
1012.8mb 75f
12:00 13 14 mph 1013mb 73f
11:54 13 14 mph 1013mb 72f
11:48 13 15 mph 1013.1mb 71f
11:42 13 14 mph 1013.1mb 71f
11:36 11 14 mph 1013mb 70f
11:30 11 13 mph 1013.1mb 70f
11:24 11 13 mph 1013.1mb 70f
11:18 11 13 mph 1013.1mb 70f
11:12 11
mph
1013.2mb 70f
11:06 11
mph
1013.3mb 70f
11:00 11
mph
1013.4mb 70f
10:54 11
mph
1013.3mb 69f
10:48 10
mph
1013.4mb 69f
10:42 9 10 mph 1013.4mb 69f
10:36 9 10 mph 1013.3mb 69f
10:30 8 9 mph 1013.3mb 69f
10:24 8 9 mph 1013.3mb 69f
10:18 8
mph
1013.1mb 69f
10:12 7 8 mph 1013.1mb 69f
10:06 7 8 mph 1013mb 70f
10:00 8
mph
1013.1mb 71f
9:54 8 9 mph 1013.1mb 71f
9:48 7 9 mph 1013.1mb 71f
9:42 6
mph
1013.1mb 71f
9:36 6 7 mph 1013.1mb 71f
9:30 6
mph
1013.1mb 72f
9:24 5 6 mph 1013.1mb 72f
9:18 3 5 mph 1013.1mb 74f
9:12  -  2 mph 1013.3mb 75f
9:06  -  1 mph 1013.4mb 76f
8:54  -  1 mph 1013.6mb 75f
8:48 2
mph
1013.7mb 73f
8:42  -  2 mph 1013.7mb 72f
8:36  -  mph 1013.7mb 72f
8:30 1 2 mph 1013.7mb 72f
8:24 2 3 mph 1013.7mb 72f
8:18 3
mph
1013.6mb 72f
8:12 3
mph
1013.6mb 72f
8:06 2 3 mph 1013.5mb 72f
8:00 3
mph
1013.5mb 71f
7:54 3 5 mph 1013.5mb 70f
7:48 3 5 mph 1013.5mb 70f
7:42 5 6 mph 1013.5mb 70f
7:36 5 6 mph - 69f
7:30 5 6 mph - 69f
7:24 6 7 mph - 68f
7:12 8 9 mph 1013.2mb 68f
7:06 8 9 mph 1013.1mb 68f
7:00 8
mph
1013.1mb 67f
6:54 7
mph
1013mb 67f
6:48 6 7 mph 1012.9mb 67f
6:42 8 9 mph 1012.8mb 67f
6:36 7 8 mph 1012.7mb 67f
6:30 5 6 mph 1012.5mb 67f
6:24 5 6 mph 1012.4mb 67f
6:18 2 3 mph 1012.3mb 67f
6:12 2
mph
1012.3mb 66f
6:06  -  2 mph 1012.2mb 66f
6:00  -  1 mph 1012mb 66f
5:54  -  1 mph 1012mb 66f
5:48 2
mph
1012mb 66f
5:42 2
mph
1012mb 66f
5:36 3
mph
1012.2mb 66f
5:30 2 3 mph 1012.1mb 66f
5:24  -  1 mph 1012.1mb 66f
5:18 1 3 mph 1012.1mb 66f
5:12 3 5 mph 1012.1mb 66f
5:06 3 5 mph 1012mb 66f
5:00 3 5 mph 1012mb 66f
4:54 2 3 mph 1012mb 67f
4:48 2
mph
1011.9mb 67f
4:42 1 2 mph 1011.8mb 67f
4:36 2
mph
1011.8mb 67f
4:30 2
mph
1011.8mb 67f
4:24 1 2 mph 1011.8mb 67f
4:18  -  2 mph 1011.7mb 68f
4:12  -  2 mph 1011.7mb 68f
4:06 2 3 mph 1011.8mb 68f
4:00 1 3 mph 1011.8mb 67f
3:54 1 3 mph 1011.8mb 67f
3:48 1 2 mph 1011.8mb 67f
3:42  -  2 mph 1011.8mb 67f
3:36  -  1 mph 1011.8mb 67f
3:30  -  1 mph 1011.9mb 66f
3:24  -  mph 1012mb 67f
3:18  -  mph 1011.9mb 67f
3:12  -  1 mph 1011.9mb 67f
3:06 1 2 mph 1011.8mb 67f
3:00 2 3 mph 1011.9mb 68f
2:54 2 3 mph 1011.9mb 68f
2:48 3
mph
1011.8mb 69f
2:42 5 6 mph 1011.8mb 69f
2:36 2 5 mph 1011.8mb 69f
2:30 3 7 mph 1011.8mb 69f
2:24 3 6 mph 1011.9mb 69f
2:18 3 6 mph 1011.9mb 69f
2:12 3 6 mph 1012mb 69f
2:06 2 5 mph 1012mb 68f
2:00  -  2 mph 1012.1mb 68f
1:54 2 3 mph 1012.1mb 68f
1:48 3 5 mph 1012.2mb 68f
1:42 3 5 mph 1012.2mb 68f
1:36 5 6 mph 1012.3mb 68f
1:30 5 6 mph 1012.3mb 68f
1:24 6 7 mph 1012.3mb 67f
1:18 6 7 mph 1012.3mb 67f
1:12 6 7 mph 1012.3mb 67f
1:06 5
mph
1012.3mb 68f
1:00 6 7 mph 1012.3mb 68f
12:54 5 7 mph 1012.3mb 68f
12:48 3
mph
1012.3mb 69f
12:42 2 3 mph 1012.3mb 69f
12:36 2 3 mph 1012.3mb 69f
12:30 2 5 mph 1012.5mb 69f
12:24 6 7 mph 1012.6mb 69f
12:18 7 9 mph 1012.6mb 69f
12:12 8 9 mph 1012.6mb 69f
12:06 8 9 mph 1012.5mb 69f
12:00 7 8 mph 1012.6mb 69f
Do 07/21 11:54 7 8 mph 1012.6mb 68f
11:48 7 9 mph 1012.6mb -
11:42 8 9 mph 1012.6mb -
11:36 7 9 mph 1012.6mb -
11:30 6 7 mph 1012.7mb 69f
11:24 5 6 mph 1012.7mb 69f
11:18 3 6 mph 1012.7mb 68f
11:12 3 5 mph 1012.7mb 68f
11:06 5 7 mph 1012.8mb 69f
11:00 7 9 mph 1012.7mb 69f
10:54 8 9 mph 1012.6mb 69f
10:48 10
mph
1012.6mb -
10:42 9 10 mph 1012.7mb -
10:36 9 11 mph 1012.7mb -
10:30 11 13 mph 1012.6mb 69f
10:24 10 13 mph 1012.6mb 69f
10:18 9 10 mph 1012.6mb 69f
10:12 9 10 mph 1012.6mb 69f
10:06 8 9 mph 1012.5mb 70f
10:00 6 8 mph 1012.5mb 71f
9:54 5 6 mph 1012.5mb 71f
9:48 3 5 mph 1012.6mb 71f
9:42 3 5 mph 1012.6mb 71f
9:36 2 3 mph 1012.5mb 71f
9:30 5
mph
1012.5mb 71f
9:24 3 5 mph 1012.5mb 71f
9:18 2 5 mph 1012.3mb 71f
9:12 2 3 mph 1012.3mb 71f
9:06 2 5 mph 1012.2mb 71f
9:00 1 3 mph 1012.1mb 71f
8:54 3 6 mph 1012mb 71f
8:48 6 8 mph 1012mb 70f
8:42 8 9 mph 1011.9mb 70f
8:36 9 10 mph 1011.9mb 71f
8:30 8 10 mph 1011.8mb 71f
8:24 7 9 mph 1011.8mb 72f
8:18 5
mph
- 73f
8:12 3 5 mph - 72f
8:06 5 6 mph - 72f
8:00  -  mph - 72f
7:54  -  mph - 72f
7:48 9 10 mph - -
7:42 8 10 mph - -
7:36 7 8 mph - -
7:30 6 7 mph - -
7:24 7 9 mph - -
7:18 10 11 mph - 72f
7:12 9 10 mph - 73f
7:06 9 10 mph - 74f
7:00  -  mph - 74f
6:54  -  mph - 74f
6:48 3 5 mph - -
6:42 3
mph
- -
6:36 3 5 mph - -
6:30 5 6 mph - -
6:24 7 8 mph - -
6:18 8 10 mph - -
6:12 6 7 mph - -
6:06 6 7 mph - -
6:00  -  mph - 77f
5:54  -  mph - 77f
5:48  -  mph - 82f
5:42  -  mph - 85f
5:36  -  mph - 84f
5:30  -  mph - 85f
5:24  -  mph - 84f
5:18 11 14 mph 1011.2mb -
5:12 10 13 mph 1011.3mb -
5:06 10 11 mph 1011.4mb -
5:00  -  mph - 86f
4:54  -  mph - 86f
4:48  -  mph - 86f
4:42  -  mph - 89f
4:36  -  mph - 89f
4:30  -  mph - 88f
4:24  -  mph - 88f
4:18 7 9 mph - 89f
4:12 8 10 mph - 89f
4:06 3 8 mph - 89f
4:00 7 9 mph - 87f
3:54 3 8 mph - 86f
3:48 2 5 mph - 86f
3:42 2 5 mph - 87f
3:36 5 7 mph - 87f
3:30 6 9 mph - 86f
3:24 5 7 mph - 87f
3:18  -  mph 1012mb 86f
3:12  -  mph 1012mb 86f
3:06  -  mph 1012mb 87f
3:00  -  mph - 86f
2:54  -  mph - 85f
2:48 9 13 mph 1012.5mb 83f
2:42 11 13 mph 1012.5mb 81f
2:36 14
mph
1012.5mb 78f
2:30 15 16 mph 1012.6mb 78f
2:24 17 18 mph 1012.6mb 77f
2:18 17 18 mph 1012.6mb 76f
2:12 18
mph
1012.7mb 76f
2:06 18 20 mph 1012.7mb 76f
2:00 17 20 mph 1012.8mb 76f
1:54 16 17 mph 1012.9mb 77f
1:48 17 18 mph 1013mb 76f
1:42 17 18 mph 1013.1mb 76f
1:36 17 18 mph 1013.2mb 76f
1:30 15 17 mph 1013.4mb 75f
1:24 16 17 mph 1013.4mb 74f
1:18 17
mph
1013.4mb 75f
1:12 17 18 mph 1013.5mb 76f
1:06 17 18 mph 1013.5mb 76f
1:00 17 18 mph 1013.6mb 76f
12:54 17 18 mph 1013.6mb 76f
12:48 16 17 mph 1013.7mb 76f
12:42 16 17 mph 1013.7mb 75f
12:36 15 16 mph 1013.7mb 75f
12:30 14 15 mph 1013.7mb 75f
12:24 14
mph
1013.8mb 75f
12:18 14
mph
1013.8mb 74f
12:12 15
mph
1013.9mb 74f
12:06 15 16 mph 1013.9mb 75f
12:00 15 16 mph 1013.9mb 75f
11:54 15
mph
1013.9mb 75f
11:48 14 15 mph 1014.1mb 76f
11:42 14
mph
1014.2mb 75f
11:36 11 14 mph 1014.1mb 74f
11:30 10 11 mph 1014mb 74f
11:24 10
mph
1014mb 74f
11:18 10 11 mph 1014mb 75f
11:12 11 13 mph 1014.1mb 74f
11:06 13
mph
1014mb 74f
11:00 11 13 mph 1014mb 74f
10:54 11
mph
1013.8mb 74f
10:48 11 13 mph 1013.9mb 74f
10:42 10 11 mph 1013.9mb 75f
10:36 10 11 mph 1013.9mb 74f
10:30 10 11 mph 1013.9mb 74f
10:24 10 11 mph 1013.9mb 74f
10:18 10
mph
1013.9mb 74f
10:12 11
mph
1014mb 73f
10:06 11 13 mph 1013.9mb 72f
10:00 9 11 mph 1013.9mb 72f
9:54 8 9 mph 1013.9mb 71f
9:48 7 8 mph 1013.7mb 70f
9:42 6
mph
1013.6mb 70f
9:36 6
mph
1013.6mb 70f
9:30 6
mph
1013.6mb 71f
9:24 5 6 mph 1013.7mb 72f
9:18 5
mph
1013.7mb 71f
9:12 5
mph
1013.8mb 71f
9:06 5 6 mph 1013.8mb 70f
9:00 6
mph
1013.8mb 69f
8:54 6
mph
1013.7mb 69f
8:48 6
mph
1013.8mb 69f
8:42 5
mph
1013.7mb 68f
8:36 5
mph
1013.6mb 68f
8:30 5
mph
1013.7mb 69f
8:24 3
mph
1013.6mb 69f
8:18 3 5 mph 1013.6mb 69f
8:12 3
mph
1013.6mb 69f
8:06 3 5 mph 1013.6mb 70f
8:00 3
mph
1013.5mb 71f
7:54 3
mph
1013.5mb 71f
7:48 2 3 mph 1013.4mb 70f
7:42 3
mph
1013.4mb 71f
7:36 1 2 mph 1013.4mb 71f
7:30  -  1 mph 1013.4mb 71f
7:24 1 2 mph 1013.4mb 72f
7:18 1 3 mph - 73f
7:12 1 2 mph - 73f
7:06  -  2 mph - 72f
7:00 1 2 mph - 71f
6:54  -  1 mph - 70f
6:48 1
mph
- 69f
6:42 1 2 mph 1013.1mb 70f
6:36 1 2 mph 1013.1mb 69f
6:30 1
mph
1013.1mb 68f
6:24  -  1 mph 1013mb 68f
6:18  -  mph 1013mb 68f
6:12  -  mph 1013mb 68f
6:06  -  1 mph 1012.9mb 68f
6:00  -  1 mph 1012.8mb 68f
5:54  -  1 mph 1012.8mb 68f
5:48 1 2 mph 1012.6mb 68f
5:42 2
mph
1012.7mb 68f
5:36 2 3 mph 1012.6mb 68f
5:30 2 3 mph 1012.7mb 69f
5:24 2 3 mph 1012.8mb 69f
5:18 2 3 mph 1012.7mb 69f
5:12 3 6 mph 1012.6mb 69f
5:06 5 6 mph 1012.6mb 69f
5:00 3 5 mph 1012.6mb 69f
4:54 3 5 mph 1012.6mb 69f
4:48 2 3 mph 1012.6mb 69f
4:42 2 3 mph 1012.6mb 69f
4:36 1 2 mph 1012.6mb 68f
4:30 2
mph
1012.6mb 68f
4:18 1 2 mph 1012.6mb 68f
4:12 1 2 mph 1012.6mb 69f
4:06 1 2 mph 1012.6mb 68f
4:00  -  1 mph 1012.6mb 68f
3:54 1 2 mph 1012.5mb 68f
3:48 2
mph
1012.5mb 68f
3:42 3
mph
1012.5mb 68f
3:36 3 5 mph 1012.5mb 68f
3:30 2 3 mph 1012.3mb 69f
3:24 2 3 mph 1012.5mb 70f
3:18 1 2 mph 1012.5mb 70f
3:12 1 2 mph 1012.4mb 71f
3:06 2 5 mph 1012.4mb 71f
3:00 2 5 mph 1012.4mb 71f
2:54 2 5 mph 1012.3mb 71f
2:48 2 3 mph 1012.4mb 71f
2:42 2 5 mph 1012.4mb 72f
2:36 3 6 mph 1012.5mb 71f
2:30 1 3 mph 1012.6mb 71f
2:24 1 3 mph 1012.7mb 71f
2:18 1 2 mph 1012.7mb 71f
2:12  -  2 mph 1012.7mb 71f
2:06 2 6 mph 1012.8mb 71f
2:00 5 6 mph 1012.9mb 70f
1:54 3 6 mph 1012.9mb 70f
1:48 3
mph
1012.8mb 69f
1:42 1 2 mph 1012.7mb 69f
1:36 1 2 mph 1012.6mb 68f
1:30 1 2 mph 1012.6mb 68f
1:24 3 6 mph 1012.6mb 68f
1:18 6 7 mph 1012.6mb 68f
1:12 7 8 mph 1012.6mb 69f
1:06 7 8 mph 1012.6mb 69f
1:00 7 8 mph 1012.7mb 70f
12:54 7 8 mph 1012.7mb 70f
12:48 7 9 mph 1012.8mb 70f
12:42 6 7 mph 1012.8mb 69f
12:36 5 6 mph 1012.8mb 69f
12:30 3 5 mph 1012.9mb 71f
12:24 3
mph
1013mb 71f
12:18 3 5 mph 1013mb 71f
12:12 5
mph
1013.1mb 70f
12:06 3 5 mph 1013.1mb 69f
12:00 3
mph
1013mb 69f
Mi 07/20 11:54 2 3 mph 1013mb 69f
11:48 2
mph
1012.9mb 69f
11:42 2 3 mph 1012.9mb 69f
11:36 3
mph
1012.8mb 71f
11:30 3 5 mph 1012.8mb 71f
11:24 3 6 mph 1012.9mb 71f
11:18 3
mph
1012.9mb 71f
11:12 3 5 mph 1012.9mb 72f
11:06 5
mph
1012.8mb 71f
11:00 5
mph
1012.9mb 70f
10:54 3 5 mph 1013mb 70f
10:48 2 3 mph 1013mb -
10:42 2
mph
1013mb -
10:36 2
mph
1012.9mb -
10:30 1 2 mph 1012.8mb 70f
10:24 3 5 mph 1012.8mb 70f
10:18 3
mph
1012.9mb 70f
10:12 3 5 mph 1012.9mb 70f
10:06 5 6 mph 1012.8mb 70f
10:00 3 5 mph 1012.7mb 70f
9:54 3 5 mph 1012.6mb 70f
9:48 6 7 mph 1012.6mb 71f
9:42 2 5 mph 1012.6mb 71f
9:36 3 5 mph 1012.5mb 71f
9:30 6 7 mph 1012.4mb 71f
9:24 7 8 mph 1012.3mb 71f
9:18 6 8 mph 1012.3mb 72f
9:12 7 8 mph 1012.2mb 72f
9:06 6 8 mph 1012.1mb 72f
9:00 3 5 mph 1012mb 73f
8:54 3 5 mph 1012mb 73f
8:48 3 6 mph 1011.9mb 74f
8:42 3
mph
1011.9mb 74f
8:36 1 2 mph 1011.8mb 73f
8:30 2 6 mph 1011.8mb 72f
8:24 6 7 mph 1011.7mb 72f
8:18 7 10 mph 1011.7mb 73f
8:12 10 13 mph 1011.7mb 72f
8:06 11 14 mph 1011.6mb 73f
8:00  -  mph - 73f
7:54  -  mph - 73f
7:48  -  mph 1011.5mb -
7:42  -  mph 1011.5mb -
7:36  -  mph 1011.5mb -
7:30 6 7 mph - -
7:24 7 8 mph - -
7:18 8 9 mph - -
7:12 8 10 mph - -
7:06 9 10 mph - -
7:00  -  mph - 77f
6:54  -  mph - 78f
6:48 3 5 mph 1011.3mb -
6:42 3 6 mph 1011.2mb -
6:36 3 6 mph 1011.2mb -
6:30 5 7 mph 1011.1mb -
6:24 6 9 mph 1011.1mb -
6:18 5 7 mph - -
6:12 3 7 mph - -
6:06 8 11 mph - -
6:00  -  mph - 84f
5:54  -  mph - 84f
5:48  -  mph 1011.2mb -
5:42  -  mph 1011.1mb -
5:36  -  mph 1011.2mb -
5:30 14 15 mph - -
5:24 14 16 mph - -
5:18 14 16 mph - 84f
5:12 13 15 mph - 84f
5:06 15 16 mph - 84f
5:00  -  mph 1011.3mb 85f
4:54  -  mph 1011.2mb 85f
4:48  -  mph 1011.3mb 85f
4:42  -  mph 1011.4mb 86f
4:36  -  mph 1011.4mb 85f
4:30 16 20 mph - -
4:24 16 18 mph - -
4:18 14 16 mph - -
4:12 14 16 mph - -
4:06 11 14 mph - -
4:00  -  mph - 87f
3:54  -  mph - 87f
3:48 13 14 mph - -
3:42 14 16 mph - -
3:36 14 15 mph - -
3:30 11 14 mph - -
3:24 10 13 mph - -
3:18 10 13 mph - 88f
3:12 7 8 mph - 86f
3:06 7 10 mph - 83f
3:00  -  mph - 82f
2:54  -  mph - 81f
2:48  -  mph - 80f
2:42  -  mph - 79f
2:36  -  mph - 79f
2:30 13 14 mph 1012.5mb 78f
2:24 9 15 mph 1012.4mb 75f
2:18 16 17 mph 1012.4mb 77f
2:12 16 17 mph 1012.5mb 77f
2:06 17
mph
1012.5mb 77f
2:00 16 17 mph 1012.6mb 77f
1:54 16
mph
1012.7mb 77f
1:48 16 17 mph 1012.7mb 77f
1:42 16 17 mph 1012.7mb 77f
1:36 16 18 mph 1012.8mb 78f
1:30 14 16 mph 1012.8mb 78f
1:24 15 17 mph 1012.9mb 79f
1:18 15 17 mph 1013mb 78f
1:12 16 17 mph 1012.9mb 77f
1:06 15 17 mph 1012.8mb 77f
1:00 14 15 mph 1013mb 77f
12:54 14
mph
1013.1mb 78f
12:48 13 14 mph 1013.1mb 78f
12:42 14 15 mph 1013.1mb 77f
12:36 15 16 mph 1013.2mb 77f
12:30 14
mph
1013.3mb 77f
12:24 13
mph
1013.4mb 78f
12:18 13 14 mph 1013.4mb 77f
12:12 14 15 mph 1013.5mb 76f
12:06 15 16 mph 1013.6mb 75f
12:00 15 16 mph 1013.5mb 75f
11:54 14 15 mph 1013.7mb 75f
11:48 14 15 mph 1013.7mb 75f
11:42 14 15 mph 1013.7mb 74f
11:36 14
mph
1013.7mb 74f
11:30 13 14 mph 1013.7mb 74f
11:24 13 14 mph 1013.7mb 74f
11:18 11 13 mph 1013.7mb 73f
11:12 11
mph
1013.7mb 73f
11:06 10 11 mph 1013.9mb 72f
11:00 10 11 mph 1013.8mb 71f
10:54 10 11 mph 1013.9mb 71f
10:48 10 11 mph 1013.9mb 71f
10:42 9 10 mph 1014mb 72f
10:36 9
mph
1014.2mb 71f
10:30 8 9 mph 1014.2mb 70f
10:24 8 9 mph 1014.2mb 69f
10:18 8 9 mph 1014.1mb 68f
10:12 8
mph
1014.1mb 68f
10:06 7 8 mph 1014.1mb 69f
10:00 7 8 mph 1014.1mb 69f
9:54 7 8 mph 1014.1mb 68f
9:48 6 7 mph 1014.1mb 69f
9:42 6 7 mph 1014.1mb 69f
9:36 6 7 mph 1014.2mb 69f
9:30 6 7 mph 1014.2mb 69f
9:24 5 6 mph 1014.2mb 68f
9:18 5 6 mph 1014.1mb 68f
9:12 5 6 mph 1014.1mb 69f
9:06 5 6 mph 1014.1mb 69f
9:00 5
mph
1014.2mb 69f
8:54 3 5 mph 1014.2mb 69f
8:48 3 5 mph 1014mb 69f
8:42 3 5 mph 1014mb 72f
8:36 3 5 mph 1014.2mb 73f
8:30 3 5 mph 1014.2mb 72f
8:24 3
mph
1014.2mb 72f
8:18 3
mph
1014.2mb 72f
8:12 2
mph
1014.3mb 72f
8:06 3
mph
1014.4mb 71f
8:00 2 3 mph 1014.3mb 70f
7:54 1 2 mph 1014.2mb 70f
7:48 1 2 mph 1014.2mb 71f
7:42 1 2 mph 1014.2mb 71f
7:36 1 2 mph 1014.2mb 69f
7:30 2
mph
1014.2mb 69f
7:24 2
mph
- 69f
7:18 1 2 mph - 69f
7:12 1 2 mph 1014.2mb 68f
7:06 2
mph
1014.1mb 68f
7:00 3
mph
1014mb 67f
6:54 2 3 mph 1014mb 67f
6:48 2 3 mph 1013.9mb 68f
6:42 3 5 mph 1013.9mb 67f
6:36 5 6 mph 1013.9mb 67f
6:30 6
mph
1013.9mb 67f
6:24 5
mph
1013.8mb 67f
6:18 5
mph
1013.7mb 67f
6:12 3 5 mph 1013.6mb 67f
6:06 3
mph
1013.6mb 67f
6:00 3 5 mph 1013.6mb 67f
5:54 5
mph
1013.7mb 67f
5:48 5
mph
1013.7mb 67f
5:42 5 6 mph 1013.6mb 67f
5:36 6
mph
1013.6mb 67f
5:30 6 7 mph 1013.7mb 67f
5:24 6 7 mph 1013.7mb 67f
5:18 6
mph
1013.6mb 67f
5:12 6 7 mph 1013.6mb 67f
5:06 3 6 mph 1013.6mb 67f
5:00 3 6 mph 1013.6mb 67f
4:54 5 6 mph 1013.6mb 67f
4:48 5 6 mph 1013.6mb 67f
4:42 3 5 mph 1013.7mb 67f
4:36 2 5 mph 1013.7mb 67f
4:30 5 6 mph 1013.7mb 67f
4:24 6 7 mph 1013.7mb 67f
4:18 6 7 mph 1013.7mb 67f
4:12 5 6 mph 1013.7mb 67f
4:06 3 5 mph 1013.6mb 67f
4:00 2 3 mph 1013.7mb 68f
3:54 3 6 mph 1013.7mb 68f
3:48 5 6 mph 1013.8mb 68f
3:42 6
mph
1013.8mb 68f
3:36 5 6 mph 1013.8mb 68f
3:30 6 7 mph 1013.8mb 68f
3:18 7 9 mph 1013.9mb 68f
3:12 3 7 mph 1013.9mb 67f
3:06 2 3 mph 1013.9mb 67f
3:00 1 2 mph 1013.9mb 67f
2:54 2
mph
1013.9mb 67f
2:48 2
mph
1013.8mb 67f
2:42 2
mph
1013.7mb 67f
2:36 2 3 mph 1013.8mb 68f
2:30 1 2 mph 1013.8mb 68f
2:24 2 3 mph 1013.8mb 68f
2:18 2
mph
1013.8mb 68f
2:12  -  2 mph 1013.7mb 67f
2:06 1 2 mph 1013.8mb 67f
2:00 3 5 mph 1013.8mb 67f
1:54 6 7 mph 1013.8mb 67f
1:48 7
mph
1013.9mb 67f
1:42 7
mph
1013.9mb 67f
1:36 6 7 mph 1013.9mb 67f
1:30 6 7 mph 1013.9mb 67f
1:24 6 7 mph 1014mb 68f
1:18 6 8 mph 1014.2mb 67f
1:12 7 8 mph 1014.2mb 68f
1:06 7 8 mph 1014.3mb 68f
1:00 6 7 mph 1014.4mb 68f
12:54 8 9 mph 1014.4mb 67f
12:48 8 9 mph 1014.4mb 68f
12:42 9 10 mph 1014.5mb 68f
12:36 8 10 mph 1014.5mb 68f
12:30 8 9 mph 1014.4mb 68f
12:24 7 8 mph 1014.4mb 68f
12:18 7
mph
1014.4mb 69f
12:12 7 8 mph 1014.5mb 68f
12:06 7 9 mph 1014.5mb 68f
12:00 8 10 mph 1014.5mb 68f
Di 07/19 11:54 8 10 mph 1014.5mb 69f
11:48 9 10 mph 1014.6mb -
11:42 9 11 mph 1014.6mb -
11:36 9 10 mph 1014.6mb -
11:30 8 10 mph 1014.5mb 69f
11:24 6 8 mph 1014.5mb 70f
11:18 3 6 mph 1014.5mb 70f
11:12 5 6 mph 1014.5mb 69f
11:06 3 5 mph 1014.5mb 69f
11:00 5 6 mph 1014.5mb 70f
10:54 6 7 mph 1014.5mb 70f
10:48 5 6 mph 1014.5mb -
10:42 3 5 mph 1014.4mb -
10:36 2 3 mph 1014.3mb -
10:30  -  mph 1014.2mb 69f
10:24  -  mph 1014.2mb 69f
10:18 3 5 mph 1014.1mb 69f
10:12 3 5 mph 1014mb 69f
10:06 5 6 mph 1013.9mb 69f
10:00 6
mph
1013.9mb 69f
9:54 6
mph
1013.8mb 70f
9:48 5 6 mph 1013.7mb 69f
9:42 6 7 mph 1013.6mb 69f
9:36 6
mph
1013.5mb 69f
9:30 5 6 mph 1013.4mb 69f
9:24 7
mph
1013.3mb 69f
9:18 7 8 mph 1013.2mb 69f
9:12 7 8 mph 1013.1mb 70f
9:06 3 7 mph 1013.1mb 70f
9:00 3
mph
1012.9mb 70f
8:54 3 5 mph 1012.8mb 70f
8:48 3 6 mph 1012.8mb 71f
8:42 6 8 mph 1012.7mb 71f
8:36 7 8 mph 1012.7mb 71f
8:30 8 10 mph 1012.7mb 71f
8:24 9 10 mph 1012.7mb 71f
8:18  -  mph - 71f
8:12  -  mph - 71f
8:06  -  mph - 71f
8:00  -  mph - 71f
7:54  -  mph - 71f
7:48 9 10 mph 1012.1mb -
7:42 6 9 mph 1012.1mb -
7:36 2 5 mph 1012mb -
7:30  -  2 mph - -
7:24 2 3 mph - -
7:18  -  mph - 76f
7:12  -  mph - 77f
7:06  -  mph - 77f
7:00  -  mph - 77f
6:54  -  mph - 77f
6:48 3 6 mph 1011.9mb -
6:42 6 8 mph 1011.9mb -
6:36 7 8 mph 1012mb -
6:30 7 10 mph 1011.9mb -
6:24 9 10 mph 1011.9mb -
6:18 9 10 mph 1011.9mb -
6:12 9 11 mph 1011.9mb -
6:06 10 13 mph 1011.9mb -
6:00  -  mph - 81f
5:54  -  mph - 81f
5:48 10 13 mph 1012.2mb -
5:42 9 13 mph 1012.3mb -
5:36 11 14 mph 1012.3mb -
5:30 13 14 mph 1012.2mb -
5:24 13 14 mph 1012.2mb -
5:18  -  mph 1012.3mb 82f
5:12  -  mph 1012.5mb 83f
5:06  -  mph 1012.4mb 82f
5:00  -  mph - 83f
4:54  -  mph - 83f
4:48 10 13 mph - -
4:42 8 11 mph - -
4:36 7 9 mph - -
4:30 6 8 mph - -
4:24 6 8 mph - -
4:18 6 9 mph - 81f
4:12 7 9 mph - 80f
4:06 6 8 mph - 83f
4:00 9 11 mph - 82f
3:54 10 11 mph - 82f
3:48 10 14 mph - 82f
3:42 11 14 mph - 81f
3:36 13 14 mph - 82f
3:30 10 11 mph - 83f
3:24 10 13 mph - 83f